createdAt,value
2017-09-10T00:00:39.937Z,12.50
2017-09-10T00:05:44.265Z,12.60
2017-09-10T00:10:47.481Z,12.30
2017-09-10T00:15:50.767Z,12.10
2017-09-10T00:20:53.985Z,12.10
2017-09-10T00:25:57.266Z,12.20
2017-09-10T00:31:00.518Z,12.00
2017-09-10T00:36:03.784Z,12.10
2017-09-10T00:41:06.966Z,11.80
2017-09-10T00:46:10.174Z,11.80
2017-09-10T00:51:13.349Z,12.00
2017-09-10T00:56:16.581Z,12.20
2017-09-10T01:01:19.811Z,11.90
2017-09-10T01:06:23.002Z,11.80
2017-09-10T01:11:26.205Z,11.80
2017-09-10T01:16:29.421Z,11.80
2017-09-10T01:21:32.639Z,11.80
2017-09-10T01:26:35.934Z,11.90
2017-09-10T01:31:39.130Z,12.00
2017-09-10T01:36:42.351Z,12.10
2017-09-10T01:41:45.554Z,12.00
2017-09-10T01:46:48.779Z,11.90
2017-09-10T01:51:52.729Z,11.80
2017-09-10T01:56:55.953Z,11.80
2017-09-10T02:01:59.169Z,11.70
2017-09-10T02:07:02.390Z,11.70
2017-09-10T02:12:05.636Z,11.70
2017-09-10T02:17:09.588Z,11.50
2017-09-10T02:22:12.792Z,11.50
2017-09-10T02:27:16.009Z,11.20
2017-09-10T02:32:19.210Z,11.20
2017-09-10T02:37:22.363Z,11.20
2017-09-10T02:42:25.596Z,11.20
2017-09-10T02:47:28.829Z,11.30
2017-09-10T02:52:32.024Z,11.20
2017-09-10T02:57:35.223Z,10.80
2017-09-10T03:02:38.437Z,10.30
2017-09-10T03:07:41.627Z,10.50
2017-09-10T03:12:44.871Z,10.60
2017-09-10T03:17:48.060Z,10.90
2017-09-10T03:22:51.302Z,10.90
2017-09-10T03:27:54.487Z,10.90
2017-09-10T03:32:57.714Z,10.70
2017-09-10T03:38:00.943Z,10.80
2017-09-10T03:43:04.144Z,10.60
2017-09-10T03:48:07.372Z,10.80
2017-09-10T03:53:11.369Z,11.00
2017-09-10T03:58:14.615Z,10.90
2017-09-10T04:03:18.594Z,10.90
2017-09-10T04:08:21.787Z,10.90
2017-09-10T04:13:24.994Z,10.90
2017-09-10T04:18:28.222Z,10.60
2017-09-10T04:23:31.456Z,10.50
2017-09-10T04:28:34.660Z,10.60
2017-09-10T04:33:37.944Z,10.80
2017-09-10T04:38:41.239Z,11.10
2017-09-10T04:43:44.502Z,11.30
2017-09-10T04:48:47.792Z,11.00
2017-09-10T04:53:50.986Z,11.20
2017-09-10T04:58:54.184Z,11.20
2017-09-10T05:03:57.410Z,11.50
2017-09-10T05:09:00.639Z,11.50
2017-09-10T05:14:03.847Z,11.50
2017-09-10T05:19:07.028Z,11.60
2017-09-10T05:24:10.252Z,11.50
2017-09-10T05:29:13.445Z,11.60
2017-09-10T05:34:16.685Z,11.80
2017-09-10T05:39:20.078Z,11.90
2017-09-10T05:44:23.243Z,11.90
2017-09-10T05:49:26.474Z,11.90
2017-09-10T05:54:29.708Z,12.00
2017-09-10T05:59:32.937Z,12.00
2017-09-10T06:04:36.186Z,12.00
2017-09-10T06:09:39.378Z,12.10
2017-09-10T06:14:42.585Z,12.20
2017-09-10T06:19:45.772Z,12.30
2017-09-10T06:24:48.985Z,12.50
2017-09-10T06:29:52.229Z,12.70
2017-09-10T06:34:55.536Z,12.70
2017-09-10T06:39:58.786Z,12.60
2017-09-10T06:45:02.026Z,12.70
2017-09-10T06:50:05.365Z,13.20
2017-09-10T06:55:08.703Z,13.40
2017-09-10T07:00:11.892Z,13.60
2017-09-10T07:05:15.101Z,13.40
2017-09-10T07:10:18.316Z,13.60
2017-09-10T07:15:21.505Z,13.60
2017-09-10T07:20:24.733Z,13.30
2017-09-10T07:25:27.942Z,13.40
2017-09-10T07:30:31.186Z,13.60
2017-09-10T07:35:34.487Z,13.80
2017-09-10T07:40:37.936Z,14.10
2017-09-10T07:45:41.151Z,14.30
2017-09-10T07:50:44.361Z,15.10
2017-09-10T07:55:47.697Z,15.10
2017-09-10T08:00:51.845Z,15.40
2017-09-10T08:05:55.071Z,15.30
2017-09-10T08:10:58.434Z,14.90
2017-09-10T08:16:01.639Z,16.10
2017-09-10T08:21:05.677Z,16.40
2017-09-10T08:26:08.892Z,16.30
2017-09-10T08:31:12.126Z,15.80
2017-09-10T08:36:15.340Z,15.50
2017-09-10T08:41:18.622Z,15.60
2017-09-10T08:46:21.839Z,15.50
2017-09-10T08:51:25.070Z,15.60
2017-09-10T08:56:28.311Z,15.90
2017-09-10T09:01:31.632Z,15.80
2017-09-10T09:06:34.824Z,16.20
2017-09-10T09:11:38.013Z,16.40
2017-09-10T09:16:41.231Z,16.90
2017-09-10T09:21:44.424Z,17.80
2017-09-10T09:26:47.607Z,18.10
2017-09-10T09:31:50.815Z,18.70
2017-09-10T09:36:54.031Z,18.50
2017-09-10T09:41:57.278Z,18.30
2017-09-10T09:47:00.518Z,18.20
2017-09-10T09:52:03.752Z,18.30
2017-09-10T09:57:06.975Z,18.70
2017-09-10T10:02:10.214Z,18.30
2017-09-10T10:07:13.422Z,18.00
2017-09-10T10:12:16.646Z,17.60
2017-09-10T10:17:19.858Z,17.80
2017-09-10T10:22:23.053Z,17.60
2017-09-10T10:27:26.297Z,17.40
2017-09-10T10:32:29.586Z,17.30
2017-09-10T10:37:32.782Z,17.70
2017-09-10T10:42:36.130Z,18.20
2017-09-10T10:47:39.316Z,17.70
2017-09-10T10:52:42.525Z,18.10
2017-09-10T10:57:45.743Z,19.00
2017-09-10T11:02:48.940Z,18.40
2017-09-10T11:07:52.215Z,18.50
2017-09-10T11:12:55.394Z,18.30
2017-09-10T11:17:58.606Z,18.60
2017-09-10T11:23:01.793Z,17.90
2017-09-10T11:28:05.135Z,18.30
2017-09-10T11:33:08.461Z,18.20
2017-09-10T11:38:11.679Z,18.30
2017-09-10T11:43:14.867Z,18.40
2017-09-10T11:48:18.067Z,17.70
2017-09-10T11:53:21.289Z,17.50
2017-09-10T11:58:24.496Z,18.20
2017-09-10T12:03:27.687Z,18.70
2017-09-10T12:08:30.909Z,18.70
2017-09-10T12:13:34.099Z,17.90
2017-09-10T12:18:37.306Z,18.00
2017-09-10T12:23:40.583Z,18.80
2017-09-10T12:28:43.843Z,19.10
2017-09-10T12:33:47.061Z,19.30
2017-09-10T12:38:50.276Z,19.20
2017-09-10T12:43:53.453Z,18.70
2017-09-10T12:48:56.635Z,18.90
2017-09-10T12:53:59.839Z,19.50
2017-09-10T12:59:03.064Z,19.20
2017-09-10T13:04:06.306Z,19.50
2017-09-10T13:09:09.517Z,19.20
2017-09-10T13:14:12.766Z,19.40
2017-09-10T13:19:16.018Z,19.50
2017-09-10T13:24:19.215Z,19.10
2017-09-10T13:29:22.425Z,19.30
2017-09-10T13:34:25.620Z,19.40
2017-09-10T13:39:28.826Z,19.50
2017-09-10T13:44:32.025Z,18.90
2017-09-10T13:49:35.231Z,19.30
2017-09-10T13:54:38.432Z,19.80
2017-09-10T13:59:41.674Z,19.40
2017-09-10T14:04:45.119Z,19.20
2017-09-10T14:09:48.325Z,19.30
2017-09-10T14:14:51.554Z,19.40
2017-09-10T14:19:54.774Z,19.50
2017-09-10T14:24:57.991Z,19.30
2017-09-10T14:30:01.253Z,19.50
2017-09-10T14:35:04.458Z,19.30
2017-09-10T14:40:07.713Z,19.00
2017-09-10T14:45:10.929Z,18.70
2017-09-10T14:50:14.158Z,18.70
2017-09-10T14:55:17.364Z,18.40
2017-09-10T15:00:20.604Z,18.30
2017-09-10T15:05:23.796Z,18.60
2017-09-10T15:10:27.034Z,18.40
2017-09-10T15:15:30.277Z,18.30
2017-09-10T15:20:33.500Z,18.30
2017-09-10T15:25:36.720Z,18.40
2017-09-10T15:30:39.978Z,18.30
2017-09-10T15:35:43.176Z,18.20
2017-09-10T15:40:46.397Z,18.00
2017-09-10T15:45:49.654Z,17.80
2017-09-10T15:50:52.868Z,18.00
2017-09-10T15:55:56.109Z,17.90
2017-09-10T16:00:59.379Z,17.80
2017-09-10T16:06:02.639Z,17.80
2017-09-10T16:11:05.885Z,17.70
2017-09-10T16:16:09.098Z,17.70
2017-09-10T16:21:12.299Z,17.80
2017-09-10T16:26:15.504Z,17.80
2017-09-10T16:31:18.850Z,17.90
2017-09-10T16:36:22.141Z,17.70
2017-09-10T16:41:25.352Z,17.60
2017-09-10T16:46:28.609Z,17.50
2017-09-10T16:51:31.844Z,17.50
2017-09-10T16:56:35.065Z,17.40
2017-09-10T17:01:38.261Z,17.40
2017-09-10T17:06:43.081Z,17.20
2017-09-10T17:11:46.395Z,17.20
2017-09-10T17:16:49.632Z,17.20
2017-09-10T17:21:52.843Z,17.10
2017-09-10T17:26:56.058Z,17.00
2017-09-10T17:31:59.312Z,16.80
2017-09-10T17:37:02.524Z,16.60
2017-09-10T17:42:05.814Z,16.50
2017-09-10T17:47:09.964Z,16.50
2017-09-10T17:52:13.194Z,16.40
2017-09-10T17:57:16.454Z,16.30
2017-09-10T18:02:20.444Z,16.20
2017-09-10T18:07:23.672Z,16.20
2017-09-10T18:12:26.890Z,16.10
2017-09-10T18:17:30.494Z,16.10
2017-09-10T18:22:33.701Z,16.30
2017-09-10T18:27:36.908Z,16.30
2017-09-10T18:32:40.132Z,16.40
2017-09-10T18:37:43.350Z,16.30
2017-09-10T18:42:46.542Z,16.30
2017-09-10T18:47:49.765Z,16.30
2017-09-10T18:52:52.991Z,16.10
2017-09-10T18:57:56.235Z,16.10
2017-09-10T19:02:59.509Z,16.00
2017-09-10T19:08:02.723Z,15.70
2017-09-10T19:13:05.932Z,16.50
2017-09-10T19:18:09.125Z,15.40
2017-09-10T19:23:12.350Z,15.00
2017-09-10T19:28:15.561Z,14.50
2017-09-10T19:33:18.819Z,14.60
2017-09-10T19:38:22.061Z,14.70
2017-09-10T19:43:25.310Z,14.70
2017-09-10T19:48:28.614Z,14.70
2017-09-10T19:53:31.852Z,14.70
2017-09-10T19:58:35.095Z,14.70
2017-09-10T20:03:38.347Z,14.60
2017-09-10T20:08:42.391Z,14.40
2017-09-10T20:13:45.963Z,14.30
2017-09-10T20:18:49.215Z,14.20
2017-09-10T20:23:52.423Z,14.10
2017-09-10T20:28:55.664Z,14.00
2017-09-10T20:33:58.891Z,14.00
2017-09-10T20:39:02.130Z,13.90
2017-09-10T20:44:05.335Z,14.00
2017-09-10T20:49:08.658Z,14.10
2017-09-10T20:54:11.843Z,14.20
2017-09-10T20:59:15.101Z,14.20
2017-09-10T21:04:18.303Z,13.80
2017-09-10T21:09:21.515Z,13.40
2017-09-10T21:14:24.728Z,13.30
2017-09-10T21:19:29.160Z,13.40
2017-09-10T21:24:32.367Z,13.30
2017-09-10T21:29:35.580Z,13.40
2017-09-10T21:34:38.848Z,13.50
2017-09-10T21:39:42.059Z,13.60
2017-09-10T21:44:45.274Z,13.60
2017-09-10T21:49:48.484Z,13.70
2017-09-10T21:54:51.697Z,13.70
2017-09-10T21:59:54.993Z,13.60
2017-09-10T22:04:58.203Z,13.50
2017-09-10T22:10:01.429Z,13.40
2017-09-10T22:15:04.633Z,13.30
2017-09-10T22:20:07.831Z,13.40
2017-09-10T22:25:11.009Z,13.30
2017-09-10T22:30:14.209Z,13.30
2017-09-10T22:35:17.418Z,13.30
2017-09-10T22:40:20.733Z,13.30
2017-09-10T22:45:23.970Z,13.20
2017-09-10T22:50:27.185Z,13.20
2017-09-10T22:55:30.393Z,13.20
2017-09-10T23:00:33.606Z,13.20
2017-09-10T23:05:36.797Z,13.10
2017-09-10T23:10:40.003Z,13.10
2017-09-10T23:15:43.186Z,13.00
2017-09-10T23:20:46.420Z,13.00
2017-09-10T23:25:49.631Z,12.90
2017-09-10T23:30:52.830Z,13.10
2017-09-10T23:35:56.253Z,13.00
2017-09-10T23:40:59.474Z,13.00
2017-09-10T23:46:02.659Z,12.80
2017-09-10T23:51:05.873Z,12.80
2017-09-10T23:56:09.060Z,12.70
